createdAt,value
2023-04-10T00:00:12.839Z,25.72
2023-04-10T00:01:12.836Z,25.72
2023-04-10T00:02:12.905Z,25.70
2023-04-10T00:03:12.994Z,25.71
2023-04-10T00:04:13.067Z,25.72
2023-04-10T00:05:12.890Z,25.71
2023-04-10T00:06:12.844Z,25.74
2023-04-10T00:07:12.849Z,25.75
2023-04-10T00:08:12.850Z,25.72
2023-04-10T00:09:12.856Z,25.75
2023-04-10T00:10:12.859Z,25.75
2023-04-10T00:11:12.862Z,25.75
2023-04-10T00:12:12.855Z,25.79
2023-04-10T00:13:12.897Z,25.78
2023-04-10T00:14:12.921Z,25.82
2023-04-10T00:15:12.986Z,25.81
2023-04-10T00:16:13.119Z,25.79
2023-04-10T00:17:13.097Z,25.81
2023-04-10T00:18:13.149Z,25.82
2023-04-10T00:19:13.237Z,25.85
2023-04-10T00:20:14.187Z,25.84
2023-04-10T00:21:13.347Z,25.85
2023-04-10T00:22:13.422Z,25.85
2023-04-10T00:23:13.458Z,25.87
2023-04-10T00:24:13.522Z,25.89
2023-04-10T00:25:13.578Z,25.88
2023-04-10T00:26:13.625Z,25.89
2023-04-10T00:27:13.680Z,25.92
2023-04-10T00:28:13.734Z,25.89
2023-04-10T00:29:14.147Z,25.91
2023-04-10T00:30:14.202Z,25.91
2023-04-10T00:31:14.203Z,25.93
2023-04-10T00:32:14.244Z,25.95
2023-04-10T00:33:14.200Z,25.92
2023-04-10T00:34:14.302Z,25.93
2023-04-10T00:35:14.187Z,25.92
2023-04-10T00:36:14.224Z,25.95
2023-04-10T00:37:14.248Z,25.93
2023-04-10T00:38:14.295Z,25.93
2023-04-10T00:39:14.360Z,25.95
2023-04-10T00:40:14.418Z,25.96
2023-04-10T00:41:14.491Z,25.95
2023-04-10T00:42:14.530Z,25.93
2023-04-10T00:43:14.588Z,26.00
2023-04-10T00:44:14.644Z,25.96
2023-04-10T00:45:14.716Z,25.96
2023-04-10T00:46:15.154Z,25.98
2023-04-10T00:47:15.171Z,25.98
2023-04-10T00:48:15.130Z,25.96
2023-04-10T00:49:15.126Z,25.98
2023-04-10T00:50:15.127Z,25.96
2023-04-10T00:51:15.129Z,25.96
2023-04-10T00:52:15.127Z,25.96
2023-04-10T00:53:15.141Z,25.96
2023-04-10T00:54:15.180Z,25.99
2023-04-10T00:55:15.242Z,25.98
2023-04-10T00:56:15.309Z,25.98
2023-04-10T00:57:15.364Z,25.99
2023-04-10T00:58:15.421Z,26.00
2023-04-10T00:59:15.480Z,26.00
2023-04-10T01:00:15.532Z,26.00
2023-04-10T01:01:15.690Z,26.02
2023-04-10T01:02:15.792Z,25.99
2023-04-10T01:03:15.918Z,25.99
2023-04-10T01:04:15.883Z,25.99
2023-04-10T01:05:15.840Z,25.96
2023-04-10T01:06:15.878Z,26.03
2023-04-10T01:07:15.944Z,25.99
2023-04-10T01:08:16.000Z,26.02
2023-04-10T01:09:16.083Z,26.03
2023-04-10T01:10:16.116Z,26.00
2023-04-10T01:11:16.161Z,25.99
2023-04-10T01:12:16.214Z,26.03
2023-04-10T01:13:16.281Z,26.00
2023-04-10T01:14:16.336Z,26.00
2023-04-10T01:15:16.397Z,26.03
2023-04-10T01:16:16.447Z,25.99
2023-04-10T01:17:16.528Z,26.03
2023-04-10T01:18:16.543Z,26.02
2023-04-10T01:19:16.590Z,26.02
2023-04-10T01:20:16.643Z,26.05
2023-04-10T01:21:16.695Z,26.02
2023-04-10T01:22:16.748Z,26.00
2023-04-10T01:23:16.797Z,26.05
2023-04-10T01:24:16.857Z,26.03
2023-04-10T01:25:16.924Z,26.02
2023-04-10T01:26:16.966Z,26.02
2023-04-10T01:27:17.036Z,26.02
2023-04-10T01:28:17.105Z,26.02
2023-04-10T01:29:17.155Z,26.03
2023-04-10T01:30:17.212Z,26.02
2023-04-10T01:31:17.353Z,26.02
2023-04-10T01:32:17.334Z,26.03
2023-04-10T01:33:17.426Z,26.06
2023-04-10T01:34:17.475Z,26.02
2023-04-10T01:35:17.518Z,26.02
2023-04-10T01:36:17.576Z,26.00
2023-04-10T01:37:17.643Z,26.00
2023-04-10T01:38:17.690Z,26.02
2023-04-10T01:39:17.744Z,26.02
2023-04-10T01:40:17.806Z,26.02
2023-04-10T01:41:17.856Z,26.02
2023-04-10T01:42:17.923Z,26.05
2023-04-10T01:43:17.987Z,26.03
2023-04-10T01:44:18.038Z,26.05
2023-04-10T01:45:18.088Z,26.02
2023-04-10T01:46:18.312Z,26.03
2023-04-10T01:47:18.211Z,26.02
2023-04-10T01:48:18.276Z,26.05
2023-04-10T01:49:18.351Z,26.02
2023-04-10T01:50:18.459Z,26.02
2023-04-10T01:51:18.460Z,26.00
2023-04-10T01:52:18.488Z,26.02
2023-04-10T01:53:18.546Z,26.02
2023-04-10T01:54:18.626Z,26.02
2023-04-10T01:55:18.679Z,26.03
2023-04-10T01:56:18.761Z,26.02
2023-04-10T01:57:18.809Z,26.00
2023-04-10T01:58:18.889Z,26.02
2023-04-10T01:59:18.936Z,26.02
2023-04-10T02:00:19.076Z,26.03
2023-04-10T02:01:28.446Z,26.00
2023-04-10T02:02:19.154Z,26.02
2023-04-10T02:03:19.286Z,26.03
2023-04-10T02:04:19.296Z,26.00
2023-04-10T02:05:19.109Z,26.02
2023-04-10T02:06:19.073Z,26.00
2023-04-10T02:07:19.075Z,26.02
2023-04-10T02:08:19.068Z,26.02
2023-04-10T02:09:19.070Z,26.00
2023-04-10T02:10:19.070Z,26.02
2023-04-10T02:11:19.064Z,26.00
2023-04-10T02:12:19.068Z,25.99
2023-04-10T02:13:19.060Z,26.00
2023-04-10T02:14:19.068Z,26.02
2023-04-10T02:15:19.069Z,26.02
2023-04-10T02:16:19.551Z,26.02
2023-04-10T02:17:19.115Z,26.02
2023-04-10T02:18:19.073Z,26.05
2023-04-10T02:19:19.079Z,26.02
2023-04-10T02:20:19.069Z,26.03
2023-04-10T02:21:19.097Z,25.98
2023-04-10T02:22:19.129Z,26.00
2023-04-10T02:23:19.185Z,26.03
2023-04-10T02:24:19.262Z,26.00
2023-04-10T02:25:19.308Z,26.00
2023-04-10T02:26:19.360Z,26.00
2023-04-10T02:27:19.416Z,26.02
2023-04-10T02:28:19.481Z,26.03
2023-04-10T02:29:19.535Z,25.99
2023-04-10T02:30:19.612Z,26.02
2023-04-10T02:31:19.734Z,25.99
2023-04-10T02:32:19.716Z,25.99
2023-04-10T02:33:20.143Z,26.02
2023-04-10T02:34:20.185Z,26.02
2023-04-10T02:35:20.198Z,26.00
2023-04-10T02:36:20.196Z,26.00
2023-04-10T02:37:20.208Z,26.02
2023-04-10T02:38:20.188Z,26.02
2023-04-10T02:39:20.187Z,26.02
2023-04-10T02:40:20.213Z,25.99
2023-04-10T02:41:20.488Z,25.99
2023-04-10T02:42:57.643Z,26.00
2023-04-10T02:43:58.619Z,25.98
2023-04-10T02:44:58.609Z,25.99
2023-04-10T02:45:58.598Z,26.03
2023-04-10T02:46:58.654Z,26.00
2023-04-10T02:47:58.624Z,26.00
2023-04-10T02:49:05.325Z,26.02
2023-04-10T02:49:58.848Z,26.00
2023-04-10T02:50:58.545Z,26.00
2023-04-10T02:51:58.538Z,26.00
2023-04-10T02:52:58.558Z,26.02
2023-04-10T02:53:58.533Z,26.00
2023-04-10T02:54:58.580Z,26.00
2023-04-10T02:55:58.505Z,26.02
2023-04-10T02:56:58.520Z,26.02
2023-04-10T02:57:58.505Z,26.00
2023-04-10T02:58:58.496Z,26.02
2023-04-10T02:59:58.488Z,26.00
2023-04-10T03:00:58.481Z,26.03
2023-04-10T03:01:58.575Z,26.02
2023-04-10T03:02:58.715Z,26.00
2023-04-10T03:03:59.029Z,26.02
2023-04-10T03:04:58.604Z,26.03
2023-04-10T03:05:59.391Z,26.00
2023-04-10T03:06:58.634Z,26.00
2023-04-10T03:07:58.665Z,26.00
2023-04-10T03:08:58.739Z,26.02
2023-04-10T03:09:58.741Z,26.03
2023-04-10T03:10:58.775Z,26.00
2023-04-10T03:11:58.831Z,26.00
2023-04-10T03:12:58.861Z,26.00
2023-04-10T03:13:58.904Z,25.99
2023-04-10T03:14:58.968Z,26.02
2023-04-10T03:15:58.989Z,26.00
2023-04-10T03:16:59.836Z,26.02
2023-04-10T03:17:59.058Z,26.02
2023-04-10T03:18:59.095Z,25.99
2023-04-10T03:19:59.240Z,26.02
2023-04-10T03:20:59.169Z,25.99
2023-04-10T03:21:59.225Z,26.02
2023-04-10T03:22:59.252Z,26.00
2023-04-10T03:23:59.279Z,25.99
2023-04-10T03:24:59.398Z,26.02
2023-04-10T03:25:59.421Z,26.02
2023-04-10T03:26:59.410Z,26.02
2023-04-10T03:28:02.337Z,26.00
2023-04-10T03:28:59.453Z,26.02
2023-04-10T03:29:59.434Z,25.99
2023-04-10T03:30:59.448Z,25.99
2023-04-10T03:31:59.622Z,25.99
2023-04-10T03:33:00.333Z,26.02
2023-04-10T03:33:59.441Z,25.99
2023-04-10T03:34:59.425Z,26.00
2023-04-10T03:35:59.450Z,25.99
2023-04-10T03:36:59.340Z,26.02
2023-04-10T03:37:59.450Z,25.98
2023-04-10T03:38:59.391Z,26.00
2023-04-10T03:39:59.372Z,26.00
2023-04-10T03:40:59.331Z,26.00
2023-04-10T03:41:59.435Z,26.00
2023-04-10T03:42:59.483Z,26.00
2023-04-10T03:43:59.457Z,26.00
2023-04-10T03:45:00.336Z,26.02
2023-04-10T03:45:59.557Z,26.03
2023-04-10T03:46:59.651Z,26.02
2023-04-10T03:47:59.729Z,26.03
2023-04-10T03:48:59.719Z,26.02
2023-04-10T03:49:59.766Z,25.99
2023-04-10T03:50:59.831Z,26.00
2023-04-10T03:51:59.845Z,26.00
2023-04-10T03:53:00.405Z,26.02
2023-04-10T03:53:59.919Z,26.00
2023-04-10T03:54:59.944Z,26.02
2023-04-10T03:55:59.993Z,25.99
2023-04-10T03:57:00.078Z,25.99
2023-04-10T03:58:00.140Z,26.00
2023-04-10T03:59:00.233Z,26.00
2023-04-10T04:00:00.181Z,26.03
2023-04-10T04:01:00.185Z,25.99
2023-04-10T04:02:00.314Z,25.99
2023-04-10T04:03:03.400Z,26.02
2023-04-10T04:04:00.898Z,26.02
2023-04-10T04:05:00.304Z,26.00
2023-04-10T04:06:00.865Z,26.00
2023-04-10T04:07:00.845Z,26.00
2023-04-10T04:08:00.224Z,25.98
2023-04-10T04:09:00.248Z,26.00
2023-04-10T04:10:00.846Z,25.99
2023-04-10T04:11:00.355Z,25.99
2023-04-10T04:12:00.232Z,26.02
2023-04-10T04:13:00.225Z,25.98
2023-04-10T04:14:00.222Z,25.99
2023-04-10T04:15:00.254Z,26.02
2023-04-10T04:16:00.300Z,26.03
2023-04-10T04:17:00.463Z,26.02
2023-04-10T04:18:00.408Z,26.00
2023-04-10T04:19:00.418Z,26.00
2023-04-10T04:20:00.474Z,26.02
2023-04-10T04:21:00.491Z,25.99
2023-04-10T04:22:00.601Z,26.00
2023-04-10T04:23:00.573Z,26.02
2023-04-10T04:24:00.612Z,26.02
2023-04-10T04:25:00.691Z,25.98
2023-04-10T04:26:00.689Z,26.02
2023-04-10T04:27:00.745Z,25.99
2023-04-10T04:28:00.793Z,26.00
2023-04-10T04:29:00.873Z,26.00
2023-04-10T04:30:00.949Z,26.02
2023-04-10T04:31:00.977Z,25.98
2023-04-10T04:32:01.113Z,25.99
2023-04-10T04:33:01.077Z,26.00
2023-04-10T04:34:01.116Z,26.00
2023-04-10T04:35:01.205Z,26.00
2023-04-10T04:36:01.219Z,25.99
2023-04-10T04:37:01.234Z,26.00
2023-04-10T04:38:01.262Z,26.03
2023-04-10T04:39:01.292Z,25.99
2023-04-10T04:40:01.339Z,25.99
2023-04-10T04:41:01.447Z,26.03
2023-04-10T04:42:01.430Z,25.99
2023-04-10T04:43:01.479Z,25.99
2023-04-10T04:44:02.377Z,25.98
2023-04-10T04:45:01.597Z,25.99
2023-04-10T04:46:01.697Z,26.00
2023-04-10T04:47:02.194Z,26.00
2023-04-10T04:48:01.748Z,26.02
2023-04-10T04:49:01.734Z,26.02
2023-04-10T04:50:01.773Z,26.02
2023-04-10T04:51:02.190Z,26.02
2023-04-10T04:52:02.361Z,26.00
2023-04-10T04:53:02.266Z,26.00
2023-04-10T04:54:02.201Z,26.03
2023-04-10T04:55:02.196Z,26.00
2023-04-10T04:56:02.192Z,25.99
2023-04-10T04:57:02.245Z,26.02
2023-04-10T04:58:02.199Z,25.99
2023-04-10T04:59:02.228Z,26.00
2023-04-10T05:00:02.332Z,26.00
2023-04-10T05:01:02.414Z,26.02
2023-04-10T05:02:02.599Z,26.00
2023-04-10T05:03:02.598Z,26.02
2023-04-10T05:04:02.575Z,26.02
2023-04-10T05:05:02.509Z,26.00
2023-04-10T05:06:03.369Z,26.02
2023-04-10T05:07:02.598Z,25.98
2023-04-10T05:08:02.683Z,26.00
2023-04-10T05:09:02.695Z,26.00
2023-04-10T05:10:03.137Z,26.02
2023-04-10T05:11:03.141Z,26.02
2023-04-10T05:12:03.155Z,26.00
2023-04-10T05:13:03.161Z,26.03
2023-04-10T05:14:03.137Z,26.02
2023-04-10T05:15:03.164Z,26.03
2023-04-10T05:16:03.163Z,26.02
2023-04-10T05:17:03.877Z,26.00
2023-04-10T05:18:03.177Z,26.00
2023-04-10T05:19:03.146Z,26.02
2023-04-10T05:20:03.208Z,26.03
2023-04-10T05:21:03.240Z,26.05
2023-04-10T05:22:03.278Z,26.06
2023-04-10T05:23:03.307Z,26.06
2023-04-10T05:24:03.420Z,26.05
2023-04-10T05:25:03.402Z,26.08
2023-04-10T05:26:03.442Z,26.06
2023-04-10T05:27:03.540Z,26.05
2023-04-10T05:28:03.542Z,26.06
2023-04-10T05:29:03.614Z,26.08
2023-04-10T05:30:03.622Z,26.08
2023-04-10T05:31:03.766Z,26.06
2023-04-10T05:32:03.725Z,26.09
2023-04-10T05:33:03.830Z,26.09
2023-04-10T05:34:03.849Z,26.09
2023-04-10T05:35:04.378Z,26.09
2023-04-10T05:36:03.963Z,26.09
2023-04-10T05:37:03.940Z,26.10
2023-04-10T05:38:04.004Z,26.09
2023-04-10T05:39:04.050Z,26.09
2023-04-10T05:40:04.094Z,26.09
2023-04-10T05:41:04.174Z,26.12
2023-04-10T05:42:04.212Z,26.10
2023-04-10T05:43:04.256Z,26.10
2023-04-10T05:44:04.314Z,26.12
2023-04-10T05:45:04.371Z,26.09
2023-04-10T05:46:04.510Z,26.12
2023-04-10T05:47:04.485Z,26.09
2023-04-10T05:48:04.666Z,26.12
2023-04-10T05:49:04.667Z,26.09
2023-04-10T05:50:04.642Z,26.09
2023-04-10T05:51:04.741Z,26.10
2023-04-10T05:52:04.750Z,26.10
2023-04-10T05:53:04.799Z,26.13
2023-04-10T05:54:04.847Z,26.13
2023-04-10T05:55:04.925Z,26.12
2023-04-10T05:56:05.005Z,26.15
2023-04-10T05:57:05.017Z,26.12
2023-04-10T05:58:05.074Z,26.13
2023-04-10T05:59:05.888Z,26.13
2023-04-10T06:00:05.891Z,26.13
2023-04-10T06:01:05.412Z,26.13
2023-04-10T06:02:05.315Z,26.13
2023-04-10T06:03:05.448Z,26.13
2023-04-10T06:04:05.469Z,26.13
2023-04-10T06:05:05.536Z,26.15
2023-04-10T06:06:05.468Z,26.10
2023-04-10T06:07:05.506Z,26.13
2023-04-10T06:08:08.386Z,26.13
2023-04-10T06:09:05.548Z,26.10
2023-04-10T06:10:05.548Z,26.12
2023-04-10T06:11:05.528Z,26.13
2023-04-10T06:12:05.900Z,26.12
2023-04-10T06:13:05.522Z,26.13
2023-04-10T06:14:05.516Z,26.12
2023-04-10T06:15:06.399Z,26.16
2023-04-10T06:16:05.533Z,26.13
2023-04-10T06:17:05.892Z,26.15
2023-04-10T06:18:08.390Z,26.15
2023-04-10T06:19:05.469Z,26.15
2023-04-10T06:20:05.457Z,26.12
2023-04-10T06:21:05.482Z,26.13
2023-04-10T06:22:05.444Z,26.15
2023-04-10T06:23:08.394Z,26.15
2023-04-10T06:24:05.418Z,26.16
2023-04-10T06:25:05.417Z,26.15
2023-04-10T06:26:05.400Z,26.16
2023-04-10T06:27:05.385Z,26.13
2023-04-10T06:28:05.370Z,26.15
2023-04-10T06:29:05.389Z,26.15
2023-04-10T06:30:05.352Z,26.13
2023-04-10T06:31:05.385Z,26.15
2023-04-10T06:32:05.332Z,26.15
2023-04-10T06:33:05.354Z,26.16
2023-04-10T06:34:05.329Z,26.15
2023-04-10T06:35:05.303Z,26.17
2023-04-10T06:36:05.539Z,26.13
2023-04-10T06:37:05.301Z,26.16
2023-04-10T06:38:05.256Z,26.15
2023-04-10T06:39:05.247Z,26.15
2023-04-10T06:40:05.258Z,26.15
2023-04-10T06:41:05.215Z,26.16
2023-04-10T06:42:05.217Z,26.16
2023-04-10T06:43:05.186Z,26.16
2023-04-10T06:44:05.198Z,26.19
2023-04-10T06:45:05.164Z,26.15
2023-04-10T06:46:05.146Z,26.16
2023-04-10T06:47:05.447Z,26.17
2023-04-10T06:48:05.201Z,26.17
2023-04-10T06:49:05.121Z,26.17
2023-04-10T06:50:05.107Z,26.17
2023-04-10T06:51:05.119Z,26.16
2023-04-10T06:52:05.173Z,26.19
2023-04-10T06:53:08.212Z,26.16
2023-04-10T06:54:05.210Z,26.17
2023-04-10T06:55:05.186Z,26.17
2023-04-10T06:56:05.179Z,26.16
2023-04-10T06:57:05.169Z,26.19
2023-04-10T06:58:05.150Z,26.19
2023-04-10T06:59:05.187Z,26.17
2023-04-10T07:00:05.125Z,26.19
2023-04-10T07:01:05.160Z,26.19
2023-04-10T07:02:05.147Z,26.20
2023-04-10T07:03:05.952Z,26.20
2023-04-10T07:04:05.131Z,26.20
2023-04-10T07:05:05.074Z,26.19
2023-04-10T07:06:05.059Z,26.17
2023-04-10T07:07:05.050Z,26.19
2023-04-10T07:08:05.089Z,26.20
2023-04-10T07:09:05.071Z,26.19
2023-04-10T07:10:05.421Z,26.19
2023-04-10T07:11:05.007Z,26.20
2023-04-10T07:12:05.025Z,26.20
2023-04-10T07:13:04.985Z,26.22
2023-04-10T07:14:05.008Z,26.22
2023-04-10T07:15:05.055Z,26.19
2023-04-10T07:16:05.158Z,26.19
2023-04-10T07:17:05.174Z,26.20
2023-04-10T07:18:05.221Z,26.19
2023-04-10T07:19:05.232Z,26.20
2023-04-10T07:20:05.272Z,26.22
2023-04-10T07:21:05.326Z,26.20
2023-04-10T07:22:05.396Z,26.20
2023-04-10T07:23:05.419Z,26.19
2023-04-10T07:24:05.464Z,26.19
2023-04-10T07:25:08.440Z,26.22
2023-04-10T07:26:05.500Z,26.19
2023-04-10T07:27:05.571Z,26.20
2023-04-10T07:28:05.482Z,26.20
2023-04-10T07:29:06.418Z,26.22
2023-04-10T07:30:13.715Z,26.20
2023-04-10T07:31:05.480Z,26.20
2023-04-10T07:32:05.529Z,26.20
2023-04-10T07:33:05.657Z,26.22
2023-04-10T07:34:11.928Z,26.20
2023-04-10T07:35:05.409Z,26.22
2023-04-10T07:36:05.469Z,26.19
2023-04-10T07:37:05.429Z,26.22
2023-04-10T07:38:05.369Z,26.20
2023-04-10T07:39:05.354Z,26.20
2023-04-10T07:40:05.347Z,26.20
2023-04-10T07:41:05.433Z,26.22
2023-04-10T07:42:05.435Z,26.20
2023-04-10T07:43:05.316Z,26.20
2023-04-10T07:44:05.309Z,26.20
2023-04-10T07:45:05.295Z,26.22
2023-04-10T07:46:05.311Z,26.23
2023-04-10T07:47:05.368Z,26.22
2023-04-10T07:48:05.341Z,26.20
2023-04-10T07:49:06.764Z,26.22
2023-04-10T07:50:05.263Z,26.20
2023-04-10T07:51:05.260Z,26.22
2023-04-10T07:52:05.261Z,26.22
2023-04-10T07:53:05.260Z,26.22
2023-04-10T07:54:05.245Z,26.22
2023-04-10T07:55:05.241Z,26.22
2023-04-10T07:56:05.235Z,26.25
2023-04-10T07:57:05.242Z,26.23
2023-04-10T07:58:05.212Z,26.23
2023-04-10T07:59:05.933Z,26.20
2023-04-10T08:00:05.197Z,26.23
2023-04-10T08:01:05.218Z,26.22
2023-04-10T08:02:05.276Z,26.23
2023-04-10T08:03:05.302Z,26.26
2023-04-10T08:04:06.072Z,26.23
2023-04-10T08:05:05.289Z,26.23
2023-04-10T08:06:05.151Z,26.25
2023-04-10T08:07:05.143Z,26.23
2023-04-10T08:08:05.143Z,26.22
2023-04-10T08:09:05.934Z,26.23
2023-04-10T08:10:05.124Z,26.26
2023-04-10T08:11:05.110Z,26.25
2023-04-10T08:12:05.142Z,26.23
2023-04-10T08:13:05.170Z,26.25
2023-04-10T08:14:05.209Z,26.25
2023-04-10T08:15:05.268Z,26.25
2023-04-10T08:16:05.318Z,26.23
2023-04-10T08:17:05.399Z,26.26
2023-04-10T08:18:05.431Z,26.23
2023-04-10T08:19:05.447Z,26.23
2023-04-10T08:20:05.497Z,26.26
2023-04-10T08:21:05.533Z,26.25
2023-04-10T08:22:05.584Z,26.27
2023-04-10T08:23:17.087Z,26.26
2023-04-10T08:24:06.443Z,26.26
2023-04-10T08:25:05.596Z,26.25
2023-04-10T08:26:05.575Z,26.23
2023-04-10T08:27:06.444Z,26.26
2023-04-10T08:28:05.982Z,26.27
2023-04-10T08:29:05.582Z,26.25
2023-04-10T08:30:05.536Z,26.26
2023-04-10T08:31:05.544Z,26.27
2023-04-10T08:32:05.498Z,26.27
2023-04-10T08:33:05.489Z,26.25
2023-04-10T08:34:05.472Z,26.25
2023-04-10T08:35:06.461Z,26.26
2023-04-10T08:36:08.266Z,26.27
2023-04-10T08:37:05.432Z,26.26
2023-04-10T08:38:13.681Z,26.26
2023-04-10T08:39:05.448Z,26.27
2023-04-10T08:40:05.374Z,26.26
2023-04-10T08:41:05.354Z,26.25
2023-04-10T08:42:05.342Z,26.29
2023-04-10T08:43:05.337Z,26.27
2023-04-10T08:44:08.265Z,26.27
2023-04-10T08:45:05.338Z,26.27
2023-04-10T08:46:05.310Z,26.26
2023-04-10T08:47:05.285Z,26.27
2023-04-10T08:48:05.261Z,26.29
2023-04-10T08:49:05.248Z,26.27
2023-04-10T08:50:05.271Z,26.29
2023-04-10T08:51:06.024Z,26.29
2023-04-10T08:52:11.957Z,26.27
2023-04-10T08:53:05.192Z,26.29
2023-04-10T08:54:05.180Z,26.27
2023-04-10T08:55:05.161Z,26.30
2023-04-10T08:56:05.158Z,26.27
2023-04-10T08:57:05.142Z,26.29
2023-04-10T08:58:05.139Z,26.27
2023-04-10T08:59:05.120Z,26.30
2023-04-10T09:01:05.099Z,26.26
2023-04-10T09:02:05.149Z,26.30
2023-04-10T09:03:05.184Z,26.30
2023-04-10T09:04:05.111Z,26.27
2023-04-10T09:05:05.008Z,26.30
2023-04-10T09:06:04.997Z,26.29
2023-04-10T09:07:04.976Z,26.27
2023-04-10T09:08:04.961Z,26.29
2023-04-10T09:09:04.972Z,26.29
2023-04-10T09:10:04.938Z,26.30
2023-04-10T09:11:04.923Z,26.30
2023-04-10T09:12:04.907Z,26.29
2023-04-10T09:13:04.892Z,26.29
2023-04-10T09:14:04.869Z,26.30
2023-04-10T09:15:04.860Z,26.29
2023-04-10T09:16:04.852Z,26.27
2023-04-10T09:17:04.866Z,26.27
2023-04-10T09:18:04.856Z,26.32
2023-04-10T09:19:06.512Z,26.30
2023-04-10T09:20:04.793Z,26.29
2023-04-10T09:21:04.782Z,26.30
2023-04-10T09:22:04.776Z,26.30
2023-04-10T09:23:04.750Z,26.29
2023-04-10T09:24:04.731Z,26.29
2023-04-10T09:25:04.727Z,26.29
2023-04-10T09:26:04.695Z,26.29
2023-04-10T09:27:04.687Z,26.30
2023-04-10T09:28:04.672Z,26.30
2023-04-10T09:29:04.665Z,26.30
2023-04-10T09:30:04.636Z,26.29
2023-04-10T09:31:04.675Z,26.29
2023-04-10T09:32:04.613Z,26.33
2023-04-10T09:33:04.695Z,26.32
2023-04-10T09:34:04.599Z,26.30
2023-04-10T09:35:04.564Z,26.30
2023-04-10T09:36:04.563Z,26.29
2023-04-10T09:37:04.562Z,26.29
2023-04-10T09:38:04.542Z,26.30
2023-04-10T09:39:04.519Z,26.30
2023-04-10T09:40:04.497Z,26.30
2023-04-10T09:41:04.483Z,26.29
2023-04-10T09:42:04.475Z,26.30
2023-04-10T09:43:04.482Z,26.30
2023-04-10T09:44:04.455Z,26.30
2023-04-10T09:45:04.444Z,26.33
2023-04-10T09:46:04.469Z,26.32
2023-04-10T09:47:04.425Z,26.29
2023-04-10T09:48:04.595Z,26.32
2023-04-10T09:49:04.507Z,26.32
2023-04-10T09:50:04.534Z,26.32
2023-04-10T09:51:04.577Z,26.35
2023-04-10T09:52:04.613Z,26.30
2023-04-10T09:53:04.750Z,26.30
2023-04-10T09:54:04.697Z,26.32
2023-04-10T09:55:04.754Z,26.29
2023-04-10T09:56:04.783Z,26.30
2023-04-10T09:57:04.826Z,26.30
2023-04-10T09:58:04.874Z,26.32
2023-04-10T09:59:04.912Z,26.29
2023-04-10T10:00:04.966Z,26.32
2023-04-10T10:01:05.008Z,26.30
2023-04-10T10:02:05.097Z,26.33
2023-04-10T10:03:05.211Z,26.32
2023-04-10T10:04:05.138Z,26.30
2023-04-10T10:05:05.329Z,26.30
2023-04-10T10:06:05.242Z,26.33
2023-04-10T10:07:05.264Z,26.33
2023-04-10T10:08:05.337Z,26.32
2023-04-10T10:09:05.362Z,26.32
2023-04-10T10:10:05.384Z,26.35
2023-04-10T10:11:05.421Z,26.30
2023-04-10T10:12:05.475Z,26.30
2023-04-10T10:13:05.512Z,26.33
2023-04-10T10:14:05.545Z,26.35
2023-04-10T10:15:05.605Z,26.32
2023-04-10T10:16:05.776Z,26.33
2023-04-10T10:17:05.661Z,26.32
2023-04-10T10:18:05.703Z,26.32
2023-04-10T10:19:05.732Z,26.30
2023-04-10T10:20:05.775Z,26.32
2023-04-10T10:21:05.833Z,26.30
2023-04-10T10:22:05.837Z,26.32
2023-04-10T10:23:05.874Z,26.33
2023-04-10T10:24:05.930Z,26.33
2023-04-10T10:25:06.492Z,26.35
2023-04-10T10:26:06.008Z,26.33
2023-04-10T10:27:06.046Z,26.32
2023-04-10T10:28:06.092Z,26.33
2023-04-10T10:29:06.147Z,26.32
2023-04-10T10:30:20.254Z,26.33
2023-04-10T10:31:09.317Z,26.35
2023-04-10T10:32:06.143Z,26.33
2023-04-10T10:33:09.298Z,26.33
2023-04-10T10:34:06.117Z,26.35
2023-04-10T10:35:06.098Z,26.32
2023-04-10T10:36:06.128Z,26.35
2023-04-10T10:37:06.151Z,26.35
2023-04-10T10:38:06.059Z,26.33
2023-04-10T10:39:06.049Z,26.35
2023-04-10T10:40:06.038Z,26.33
2023-04-10T10:41:06.025Z,26.33
2023-04-10T10:42:06.013Z,26.32
2023-04-10T10:43:05.997Z,26.32
2023-04-10T10:44:05.986Z,26.33
2023-04-10T10:45:05.976Z,26.33
2023-04-10T10:46:05.984Z,26.30
2023-04-10T10:47:05.959Z,26.29
2023-04-10T10:48:06.549Z,26.27
2023-04-10T10:49:05.923Z,26.29
2023-04-10T10:50:05.914Z,26.29
2023-04-10T10:51:05.902Z,26.29
2023-04-10T10:52:05.885Z,26.26
2023-04-10T10:53:05.888Z,26.27
2023-04-10T10:54:05.843Z,26.26
2023-04-10T10:55:05.826Z,26.26
2023-04-10T10:56:05.837Z,26.26
2023-04-10T10:57:05.795Z,26.26
2023-04-10T10:58:05.787Z,26.26
2023-04-10T10:59:05.827Z,26.26
2023-04-10T11:00:05.917Z,26.27
2023-04-10T11:01:08.388Z,26.27
2023-04-10T11:02:06.075Z,26.26
2023-04-10T11:03:06.067Z,26.26
2023-04-10T11:04:05.980Z,26.25
2023-04-10T11:05:05.852Z,26.27
2023-04-10T11:06:05.842Z,26.26
2023-04-10T11:07:05.841Z,26.27
2023-04-10T11:08:05.821Z,26.25
2023-04-10T11:09:05.844Z,26.23
2023-04-10T11:10:06.503Z,26.23
2023-04-10T11:11:05.986Z,26.23
2023-04-10T11:12:05.869Z,26.22
2023-04-10T11:13:05.926Z,26.22
2023-04-10T11:14:05.959Z,26.23
2023-04-10T11:15:06.017Z,26.22
2023-04-10T11:16:06.099Z,26.22
2023-04-10T11:17:06.191Z,26.20
2023-04-10T11:18:06.183Z,26.20
2023-04-10T11:19:15.381Z,26.19
2023-04-10T11:20:06.213Z,26.19
2023-04-10T11:21:06.235Z,26.23
2023-04-10T11:22:06.514Z,26.19
2023-04-10T11:23:06.202Z,26.20
2023-04-10T11:24:06.208Z,26.22
2023-04-10T11:25:06.202Z,26.19
2023-04-10T11:26:06.178Z,26.20
2023-04-10T11:27:06.142Z,26.22
2023-04-10T11:28:06.158Z,26.20
2023-04-10T11:29:06.251Z,26.20
2023-04-10T11:30:06.270Z,26.19
2023-04-10T11:31:06.303Z,26.20
2023-04-10T11:32:06.390Z,26.20
2023-04-10T11:33:06.512Z,26.20
2023-04-10T11:34:06.454Z,26.20
2023-04-10T11:35:06.501Z,26.19
2023-04-10T11:36:06.560Z,26.20
2023-04-10T11:37:06.614Z,26.19
2023-04-10T11:38:06.648Z,26.17
2023-04-10T11:39:09.528Z,26.19
2023-04-10T11:40:06.713Z,26.19
2023-04-10T11:41:06.694Z,26.19
2023-04-10T11:42:06.647Z,26.19
2023-04-10T11:43:06.641Z,26.15
2023-04-10T11:44:06.623Z,26.15
2023-04-10T11:45:06.618Z,26.17
2023-04-10T11:46:06.656Z,26.17
2023-04-10T11:47:06.596Z,26.16
2023-04-10T11:48:06.681Z,26.16
2023-04-10T11:49:06.569Z,26.16
2023-04-10T11:50:06.543Z,26.16
2023-04-10T11:51:06.525Z,26.16
2023-04-10T11:52:06.516Z,26.15
2023-04-10T11:53:06.494Z,26.16
2023-04-10T11:54:06.482Z,26.19
2023-04-10T11:55:06.461Z,26.16
2023-04-10T11:56:06.454Z,26.15
2023-04-10T11:57:06.491Z,26.17
2023-04-10T11:58:06.429Z,26.16
2023-04-10T11:59:06.412Z,26.13
2023-04-10T12:00:06.408Z,26.13
2023-04-10T12:01:06.386Z,26.16
2023-04-10T12:02:06.456Z,26.16
2023-04-10T12:03:06.559Z,26.16
2023-04-10T12:04:06.423Z,26.15
2023-04-10T12:05:06.441Z,26.15
2023-04-10T12:06:06.425Z,26.15
2023-04-10T12:07:06.456Z,26.16
2023-04-10T12:08:06.505Z,26.16
2023-04-10T12:09:06.537Z,26.15
2023-04-10T12:10:06.593Z,26.16
2023-04-10T12:11:06.625Z,26.15
2023-04-10T12:12:06.725Z,26.15
2023-04-10T12:13:06.757Z,26.16
2023-04-10T12:14:06.779Z,26.12
2023-04-10T12:15:06.855Z,26.16
2023-04-10T12:16:06.969Z,26.13
2023-04-10T12:17:06.906Z,26.12
2023-04-10T12:18:06.969Z,26.15
2023-04-10T12:19:07.003Z,26.13
2023-04-10T12:20:07.158Z,26.15
2023-04-10T12:21:10.024Z,26.12
2023-04-10T12:22:07.529Z,26.13
2023-04-10T12:23:07.089Z,26.15
2023-04-10T12:24:07.070Z,26.12
2023-04-10T12:25:07.048Z,26.15
2023-04-10T12:26:07.043Z,26.15
2023-04-10T12:27:07.031Z,26.10
2023-04-10T12:28:07.022Z,26.12
2023-04-10T12:29:07.125Z,26.12
2023-04-10T12:30:07.004Z,26.12
2023-04-10T12:31:07.028Z,26.13
2023-04-10T12:32:06.989Z,26.13
2023-04-10T12:33:07.100Z,26.12
2023-04-10T12:34:08.513Z,26.09
2023-04-10T12:35:06.956Z,26.13
2023-04-10T12:36:06.936Z,26.10
2023-04-10T12:37:06.931Z,26.12
2023-04-10T12:38:06.987Z,26.12
2023-04-10T12:39:06.908Z,26.12
2023-04-10T12:40:06.890Z,26.10
2023-04-10T12:41:06.883Z,26.09
2023-04-10T12:42:06.860Z,26.13
2023-04-10T12:43:06.872Z,26.10
2023-04-10T12:44:07.542Z,26.12
2023-04-10T12:45:06.869Z,26.10
2023-04-10T12:46:06.857Z,26.12
2023-04-10T12:47:06.770Z,26.12
2023-04-10T12:48:06.831Z,26.10
2023-04-10T12:49:06.767Z,26.12
2023-04-10T12:50:06.736Z,26.09
2023-04-10T12:51:06.819Z,26.12
2023-04-10T12:52:06.685Z,26.10
2023-04-10T12:53:06.671Z,26.12
2023-04-10T12:54:06.653Z,26.12